createdAt,value
2019-01-30T00:00:22.920Z,987.14
2019-01-30T00:01:22.777Z,987.09
2019-01-30T00:02:23.134Z,987.10
2019-01-30T00:03:23.506Z,987.07
2019-01-30T00:04:23.792Z,987.05
2019-01-30T00:05:24.134Z,986.98
2019-01-30T00:06:24.691Z,986.96
2019-01-30T00:07:24.559Z,986.88
2019-01-30T00:08:24.859Z,986.91
2019-01-30T00:09:25.528Z,986.86
2019-01-30T00:10:25.301Z,986.87
2019-01-30T00:11:25.576Z,986.93
2019-01-30T00:12:25.923Z,986.95
2019-01-30T00:13:26.228Z,986.91
2019-01-30T00:14:26.902Z,986.86
2019-01-30T00:15:26.749Z,986.84
2019-01-30T00:16:27.065Z,986.88
2019-01-30T00:17:27.389Z,986.81
2019-01-30T00:18:27.706Z,986.87
2019-01-30T00:19:28.006Z,986.78
2019-01-30T00:20:28.314Z,986.81
2019-01-30T00:21:28.630Z,986.74
2019-01-30T00:22:28.897Z,986.75
2019-01-30T00:23:29.621Z,986.75
2019-01-30T00:24:30.044Z,986.73
2019-01-30T00:25:30.659Z,986.70
2019-01-30T00:26:30.873Z,986.70
2019-01-30T00:27:31.200Z,986.64
2019-01-30T00:28:31.497Z,986.66
2019-01-30T00:29:31.711Z,986.70
2019-01-30T00:30:31.689Z,986.59
2019-01-30T00:31:32.121Z,986.63
2019-01-30T00:32:32.971Z,986.71
2019-01-30T00:33:33.167Z,986.61
2019-01-30T00:34:33.382Z,986.63
2019-01-30T00:35:33.696Z,986.51
2019-01-30T00:36:33.800Z,986.56
2019-01-30T00:37:34.018Z,986.54
2019-01-30T00:38:34.212Z,986.48
2019-01-30T00:39:34.197Z,986.59
2019-01-30T00:40:34.651Z,986.47
2019-01-30T00:41:34.935Z,986.42
2019-01-30T00:42:35.469Z,986.42
2019-01-30T00:43:35.332Z,986.45
2019-01-30T00:44:35.600Z,986.42
2019-01-30T00:45:35.550Z,986.42
2019-01-30T00:46:35.826Z,986.37
2019-01-30T00:47:36.177Z,986.36
2019-01-30T00:48:36.648Z,986.26
2019-01-30T00:49:37.002Z,986.29
2019-01-30T00:50:37.481Z,986.20
2019-01-30T00:51:38.377Z,986.28
2019-01-30T00:52:38.732Z,986.22
2019-01-30T00:53:38.621Z,986.24
2019-01-30T00:54:39.147Z,986.31
2019-01-30T00:55:39.017Z,986.29
2019-01-30T00:56:39.672Z,986.27
2019-01-30T00:57:39.531Z,986.08
2019-01-30T00:58:39.851Z,986.10
2019-01-30T00:59:40.131Z,986.13
2019-01-30T01:00:40.505Z,986.11
2019-01-30T01:01:40.799Z,986.10
2019-01-30T01:02:41.446Z,986.11
2019-01-30T01:03:41.844Z,986.05
2019-01-30T01:04:42.240Z,986.04
2019-01-30T01:05:43.313Z,985.99
2019-01-30T01:06:42.649Z,985.99
2019-01-30T01:07:42.929Z,986.01
2019-01-30T01:08:43.650Z,985.98
2019-01-30T01:09:43.951Z,985.89
2019-01-30T01:10:43.811Z,985.95
2019-01-30T01:11:44.887Z,985.88
2019-01-30T01:12:44.795Z,985.92
2019-01-30T01:13:45.734Z,985.91
2019-01-30T01:14:46.139Z,985.91
2019-01-30T01:15:46.552Z,985.93
2019-01-30T01:16:47.072Z,985.92
2019-01-30T01:17:47.083Z,985.92
2019-01-30T01:18:47.105Z,985.90
2019-01-30T01:19:47.091Z,985.96
2019-01-30T01:20:47.610Z,985.94
2019-01-30T01:21:47.504Z,985.92
2019-01-30T01:22:47.827Z,985.87
2019-01-30T01:23:48.234Z,985.97
2019-01-30T01:24:48.469Z,985.88
2019-01-30T01:25:48.775Z,985.91
2019-01-30T01:26:49.080Z,985.82
2019-01-30T01:27:49.412Z,985.78
2019-01-30T01:28:49.071Z,985.80
2019-01-30T01:29:49.655Z,985.80
2019-01-30T01:30:49.716Z,985.86
2019-01-30T01:31:49.623Z,985.77
2019-01-30T01:32:49.962Z,985.81
2019-01-30T01:33:50.249Z,985.67
2019-01-30T01:34:50.417Z,985.82
2019-01-30T01:35:51.183Z,985.80
2019-01-30T01:36:50.881Z,985.71
2019-01-30T01:37:50.990Z,985.76
2019-01-30T01:38:51.040Z,985.71
2019-01-30T01:39:51.132Z,985.69
2019-01-30T01:40:51.543Z,985.69
2019-01-30T01:41:51.391Z,985.73
2019-01-30T01:42:51.698Z,985.73
2019-01-30T01:43:52.013Z,985.62
2019-01-30T01:44:52.910Z,985.70
2019-01-30T01:45:52.791Z,985.57
2019-01-30T01:46:53.591Z,985.57
2019-01-30T01:47:53.465Z,985.56
2019-01-30T01:48:53.889Z,985.56
2019-01-30T01:49:54.195Z,985.47
2019-01-30T01:51:54.984Z,985.54
2019-01-30T01:52:55.001Z,985.49
2019-01-30T01:53:54.816Z,985.45
2019-01-30T01:54:55.407Z,985.42
2019-01-30T01:55:55.264Z,985.37
2019-01-30T01:56:55.693Z,985.39
2019-01-30T01:57:56.107Z,985.32
2019-01-30T01:58:56.407Z,985.32
2019-01-30T01:59:56.719Z,985.34
2019-01-30T02:00:57.044Z,985.36
2019-01-30T02:01:57.351Z,985.19
2019-01-30T02:02:57.667Z,985.22
2019-01-30T02:03:58.186Z,985.19
2019-01-30T02:04:57.988Z,985.24
2019-01-30T02:05:58.526Z,985.20
2019-01-30T02:06:58.666Z,985.16
2019-01-30T02:07:58.503Z,985.16
2019-01-30T02:08:59.195Z,985.17
2019-01-30T02:09:59.607Z,985.14
2019-01-30T02:11:00.144Z,985.05
2019-01-30T02:12:00.223Z,985.05
2019-01-30T02:13:00.336Z,985.01
2019-01-30T02:14:00.556Z,985.12
2019-01-30T02:15:00.788Z,984.99
2019-01-30T02:16:00.777Z,984.96
2019-01-30T02:17:01.284Z,984.95
2019-01-30T02:18:01.287Z,984.94
2019-01-30T02:19:01.091Z,984.91
2019-01-30T02:20:01.613Z,984.87
2019-01-30T02:21:01.635Z,984.87
2019-01-30T02:22:02.139Z,984.86
2019-01-30T02:23:02.447Z,984.79
2019-01-30T02:24:02.681Z,984.72
2019-01-30T02:25:02.870Z,984.72
2019-01-30T02:26:03.308Z,984.76
2019-01-30T02:27:03.498Z,984.74
2019-01-30T02:28:03.510Z,984.77
2019-01-30T02:29:03.711Z,984.65
2019-01-30T02:30:03.833Z,984.73
2019-01-30T02:31:04.076Z,984.63
2019-01-30T02:32:04.470Z,984.60
2019-01-30T02:33:04.459Z,984.53
2019-01-30T02:34:04.576Z,984.52
2019-01-30T02:35:04.791Z,984.47
2019-01-30T02:36:04.990Z,984.46
2019-01-30T02:37:05.109Z,984.50
2019-01-30T02:38:05.002Z,984.46
2019-01-30T02:39:05.505Z,984.48
2019-01-30T02:40:05.436Z,984.40
2019-01-30T02:41:05.759Z,984.38
2019-01-30T02:42:05.820Z,984.40
2019-01-30T02:43:05.713Z,984.32
2019-01-30T02:44:06.049Z,984.32
2019-01-30T02:45:06.440Z,984.31
2019-01-30T02:46:06.605Z,984.31
2019-01-30T02:47:06.825Z,984.28
2019-01-30T02:48:06.679Z,984.25
2019-01-30T02:49:06.987Z,984.26
2019-01-30T02:50:07.332Z,984.25
2019-01-30T02:51:08.624Z,984.18
2019-01-30T02:52:08.485Z,984.16
2019-01-30T02:53:08.330Z,984.16
2019-01-30T02:54:08.585Z,984.14
2019-01-30T02:55:08.945Z,984.07
2019-01-30T02:56:09.366Z,984.02
2019-01-30T02:57:09.688Z,983.95
2019-01-30T02:58:09.994Z,983.92
2019-01-30T02:59:10.568Z,984.00
2019-01-30T03:00:11.293Z,984.00
2019-01-30T03:01:10.770Z,983.92
2019-01-30T03:02:11.163Z,984.06
2019-01-30T03:03:11.616Z,983.92
2019-01-30T03:04:11.518Z,983.95
2019-01-30T03:05:12.970Z,983.95
2019-01-30T03:06:12.204Z,983.96
2019-01-30T03:07:13.189Z,983.92
2019-01-30T03:08:13.093Z,983.90
2019-01-30T03:09:13.908Z,983.89
2019-01-30T03:10:13.913Z,983.90
2019-01-30T03:11:13.956Z,984.02
2019-01-30T03:12:14.658Z,983.99
2019-01-30T03:13:15.364Z,983.93
2019-01-30T03:14:15.374Z,983.92
2019-01-30T03:15:15.784Z,984.01
2019-01-30T03:16:15.589Z,984.00
2019-01-30T03:17:16.110Z,983.97
2019-01-30T03:18:16.436Z,983.96
2019-01-30T03:19:16.937Z,983.89
2019-01-30T03:20:17.457Z,983.91
2019-01-30T03:21:17.671Z,984.00
2019-01-30T03:22:17.984Z,983.94
2019-01-30T03:23:18.283Z,983.95
2019-01-30T03:24:18.402Z,983.95
2019-01-30T03:25:18.925Z,983.86
2019-01-30T03:26:18.620Z,983.84
2019-01-30T03:27:18.937Z,983.88
2019-01-30T03:28:19.055Z,983.83
2019-01-30T03:29:19.049Z,983.80
2019-01-30T03:30:19.679Z,983.79
2019-01-30T03:31:19.896Z,983.69
2019-01-30T03:32:19.860Z,983.71
2019-01-30T03:33:20.145Z,983.75
2019-01-30T03:34:20.317Z,983.78
2019-01-30T03:35:20.733Z,983.72
2019-01-30T03:36:20.519Z,983.73
2019-01-30T03:37:21.270Z,983.77
2019-01-30T03:38:21.343Z,983.70
2019-01-30T03:39:21.369Z,983.71
2019-01-30T03:40:21.306Z,983.75
2019-01-30T03:41:21.605Z,983.77
2019-01-30T03:42:22.547Z,983.77
2019-01-30T03:43:22.378Z,983.74
2019-01-30T03:44:23.140Z,983.65
2019-01-30T03:45:23.003Z,983.74
2019-01-30T03:46:23.320Z,983.77
2019-01-30T03:47:23.692Z,983.76
2019-01-30T03:48:24.514Z,983.77
2019-01-30T03:49:24.816Z,983.79
2019-01-30T03:50:24.579Z,983.82
2019-01-30T03:51:24.938Z,983.86
2019-01-30T03:52:25.449Z,983.90
2019-01-30T03:53:25.317Z,983.81
2019-01-30T03:54:25.972Z,983.77
2019-01-30T03:55:25.880Z,983.75
2019-01-30T03:56:26.291Z,983.68
2019-01-30T03:57:28.924Z,983.64
2019-01-30T03:58:26.996Z,983.64
2019-01-30T03:59:27.401Z,983.64
2019-01-30T04:01:28.270Z,983.62
2019-01-30T04:02:28.281Z,983.54
2019-01-30T04:03:28.138Z,983.62
2019-01-30T04:04:28.917Z,983.62
2019-01-30T04:05:28.819Z,983.65
2019-01-30T04:06:29.636Z,983.66
2019-01-30T04:07:30.360Z,983.60
2019-01-30T04:08:30.775Z,983.67
2019-01-30T04:09:31.200Z,983.66
2019-01-30T04:10:31.610Z,983.62
2019-01-30T04:11:31.981Z,983.63
2019-01-30T04:12:32.237Z,983.72
2019-01-30T04:13:32.448Z,983.68
2019-01-30T04:14:32.669Z,983.65
2019-01-30T04:15:32.875Z,983.64
2019-01-30T04:16:33.177Z,983.68
2019-01-30T04:17:33.395Z,983.68
2019-01-30T04:18:33.730Z,983.67
2019-01-30T04:19:33.938Z,983.54
2019-01-30T04:20:33.929Z,983.63
2019-01-30T04:21:34.549Z,983.56
2019-01-30T04:22:34.452Z,983.52
2019-01-30T04:23:34.762Z,983.51
2019-01-30T04:24:35.281Z,983.49
2019-01-30T04:25:35.194Z,983.52
2019-01-30T04:26:35.677Z,983.56
2019-01-30T04:27:36.181Z,983.61
2019-01-30T04:28:36.128Z,983.57
2019-01-30T04:29:35.922Z,983.54
2019-01-30T04:30:37.269Z,983.48
2019-01-30T04:31:38.376Z,983.45
2019-01-30T04:32:36.935Z,983.53
2019-01-30T04:33:37.254Z,983.44
2019-01-30T04:34:37.550Z,983.38
2019-01-30T04:35:38.016Z,983.43
2019-01-30T04:37:38.398Z,983.37
2019-01-30T04:38:38.716Z,983.41
2019-01-30T04:39:39.478Z,983.40
2019-01-30T04:40:39.518Z,983.37
2019-01-30T04:41:39.698Z,983.37
2019-01-30T04:42:39.557Z,983.37
2019-01-30T04:43:40.014Z,983.40
2019-01-30T04:44:40.420Z,983.30
2019-01-30T04:45:41.366Z,983.31
2019-01-30T04:46:41.149Z,983.33
2019-01-30T04:47:42.103Z,983.33
2019-01-30T04:48:41.867Z,983.33
2019-01-30T04:49:42.401Z,983.26
2019-01-30T04:50:42.424Z,983.32
2019-01-30T04:51:42.422Z,983.29
2019-01-30T04:52:42.388Z,983.24
2019-01-30T04:53:42.672Z,983.29
2019-01-30T04:54:43.019Z,983.24
2019-01-30T04:55:43.341Z,983.23
2019-01-30T04:56:43.751Z,983.23
2019-01-30T04:57:44.082Z,983.20
2019-01-30T04:58:45.335Z,983.16
2019-01-30T04:59:45.860Z,983.13
2019-01-30T05:00:45.770Z,983.19
2019-01-30T05:01:49.609Z,983.20
2019-01-30T05:02:46.187Z,983.05
2019-01-30T05:03:46.602Z,983.17
2019-01-30T05:04:46.982Z,983.10
2019-01-30T05:05:47.340Z,983.15
2019-01-30T05:06:47.843Z,983.14
2019-01-30T05:07:47.859Z,983.12
2019-01-30T05:08:48.164Z,983.16
2019-01-30T05:09:48.378Z,983.26
2019-01-30T05:10:48.877Z,983.27
2019-01-30T05:11:48.695Z,983.32
2019-01-30T05:12:48.913Z,983.26
2019-01-30T05:13:49.126Z,983.19
2019-01-30T05:14:49.229Z,983.26
2019-01-30T05:15:49.244Z,983.28
2019-01-30T05:16:49.549Z,983.24
2019-01-30T05:17:49.454Z,983.27
2019-01-30T05:18:50.280Z,983.23
2019-01-30T05:19:50.134Z,983.26
2019-01-30T05:20:50.425Z,983.23
2019-01-30T05:21:50.362Z,983.24
2019-01-30T05:22:50.823Z,983.11
2019-01-30T05:23:51.192Z,983.23
2019-01-30T05:24:51.509Z,983.09
2019-01-30T05:25:52.133Z,983.05
2019-01-30T05:26:52.175Z,983.06
2019-01-30T05:27:52.402Z,983.12
2019-01-30T05:28:52.800Z,983.17
2019-01-30T05:29:52.566Z,983.09
2019-01-30T05:30:53.011Z,983.08
2019-01-30T05:32:00.946Z,983.00
2019-01-30T05:32:53.786Z,982.94
2019-01-30T05:33:54.131Z,982.94
2019-01-30T05:34:54.792Z,983.00
2019-01-30T05:35:54.667Z,982.94
2019-01-30T05:36:55.068Z,983.00
2019-01-30T05:37:55.370Z,983.14
2019-01-30T05:38:55.754Z,983.15
2019-01-30T05:39:56.110Z,983.06
2019-01-30T05:40:56.424Z,983.12
2019-01-30T05:41:57.031Z,982.99
2019-01-30T05:42:57.196Z,983.00
2019-01-30T05:43:57.211Z,983.04
2019-01-30T05:44:57.060Z,983.04
2019-01-30T05:45:57.385Z,982.94
2019-01-30T05:47:57.814Z,983.00
2019-01-30T05:48:58.462Z,983.02
2019-01-30T05:49:59.086Z,982.99
2019-01-30T05:50:58.448Z,982.98
2019-01-30T05:51:58.969Z,983.09
2019-01-30T05:52:58.749Z,983.05
2019-01-30T05:53:59.070Z,983.00
2019-01-30T05:55:00.189Z,982.98
2019-01-30T05:56:00.866Z,983.00
2019-01-30T05:57:01.287Z,982.99
2019-01-30T05:58:01.797Z,983.02
2019-01-30T05:59:02.195Z,982.94
2019-01-30T06:00:02.427Z,982.94
2019-01-30T06:01:02.742Z,982.92
2019-01-30T06:02:11.920Z,982.95
2019-01-30T06:03:03.255Z,982.96
2019-01-30T06:04:03.369Z,982.89
2019-01-30T06:05:03.373Z,982.81
2019-01-30T06:06:04.056Z,982.94
2019-01-30T06:07:03.954Z,982.99
2019-01-30T06:08:04.057Z,982.91
2019-01-30T06:09:04.535Z,982.98
2019-01-30T06:10:04.654Z,982.94
2019-01-30T06:11:04.864Z,982.95
2019-01-30T06:12:05.061Z,982.90
2019-01-30T06:13:05.051Z,982.94
2019-01-30T06:14:05.444Z,982.91
2019-01-30T06:15:05.597Z,982.94
2019-01-30T06:16:05.727Z,982.89
2019-01-30T06:17:06.075Z,982.83
2019-01-30T06:18:06.459Z,982.80
2019-01-30T06:19:07.226Z,982.86
2019-01-30T06:20:07.545Z,982.84
2019-01-30T06:22:08.109Z,982.85
2019-01-30T06:23:08.331Z,982.78
2019-01-30T06:24:08.194Z,982.86
2019-01-30T06:25:08.593Z,982.78
2019-01-30T06:26:08.965Z,982.77
2019-01-30T06:27:09.327Z,982.81
2019-01-30T06:28:09.836Z,982.79
2019-01-30T06:29:09.757Z,982.82
2019-01-30T06:30:10.536Z,982.80
2019-01-30T06:31:10.918Z,982.77
2019-01-30T06:32:10.930Z,982.75
2019-01-30T06:33:10.797Z,982.80
2019-01-30T06:34:11.213Z,982.80
2019-01-30T06:35:12.079Z,982.78
2019-01-30T06:36:12.183Z,982.81
2019-01-30T06:37:11.980Z,982.85
2019-01-30T06:38:12.612Z,982.78
2019-01-30T06:39:13.024Z,982.82
2019-01-30T06:40:12.798Z,982.75
2019-01-30T06:41:13.661Z,982.76
2019-01-30T06:42:13.518Z,982.83
2019-01-30T06:43:13.828Z,982.73
2019-01-30T06:44:14.295Z,982.75
2019-01-30T06:45:15.732Z,982.75
2019-01-30T06:46:16.247Z,982.78
2019-01-30T06:47:16.262Z,982.73
2019-01-30T06:48:16.269Z,982.72
2019-01-30T06:49:16.373Z,982.69
2019-01-30T06:50:16.475Z,982.62
2019-01-30T06:52:16.588Z,982.72
2019-01-30T06:53:16.610Z,982.60
2019-01-30T06:54:16.609Z,982.69
2019-01-30T06:55:17.124Z,982.71
2019-01-30T06:56:17.127Z,982.68
2019-01-30T06:57:17.237Z,982.65
2019-01-30T06:58:20.754Z,982.71
2019-01-30T06:59:17.161Z,982.71
2019-01-30T07:00:17.666Z,982.63
2019-01-30T07:01:17.780Z,982.54
2019-01-30T07:02:18.257Z,982.60
2019-01-30T07:03:18.199Z,982.60
2019-01-30T07:04:18.933Z,982.65
2019-01-30T07:05:18.972Z,982.65
2019-01-30T07:06:19.020Z,982.56
2019-01-30T07:07:19.153Z,982.57
2019-01-30T07:08:19.548Z,982.61
2019-01-30T07:09:19.573Z,982.60
2019-01-30T07:10:19.730Z,982.65
2019-01-30T07:11:19.831Z,982.67
2019-01-30T07:12:20.162Z,982.56
2019-01-30T07:13:20.429Z,982.56
2019-01-30T07:14:21.011Z,982.65
2019-01-30T07:15:21.246Z,982.63
2019-01-30T07:16:21.206Z,982.61
2019-01-30T07:17:21.745Z,982.61
2019-01-30T07:18:21.151Z,982.62
2019-01-30T07:19:22.238Z,982.63
2019-01-30T07:20:21.539Z,982.68
2019-01-30T07:21:21.861Z,982.61
2019-01-30T07:22:22.394Z,982.46
2019-01-30T07:23:22.427Z,982.58
2019-01-30T07:24:22.314Z,982.55
2019-01-30T07:25:22.701Z,982.61
2019-01-30T07:26:23.006Z,982.58
2019-01-30T07:27:24.010Z,982.45
2019-01-30T07:28:24.094Z,982.55
2019-01-30T07:29:23.899Z,982.62
2019-01-30T07:30:24.725Z,982.62
2019-01-30T07:31:24.436Z,982.55
2019-01-30T07:32:24.827Z,982.63
2019-01-30T07:33:25.355Z,982.59
2019-01-30T07:34:25.393Z,982.58
2019-01-30T07:35:25.463Z,982.62
2019-01-30T07:36:25.478Z,982.64
2019-01-30T07:37:25.850Z,982.63
2019-01-30T07:38:26.161Z,982.64
2019-01-30T07:39:26.718Z,982.60
2019-01-30T07:40:26.603Z,982.61
2019-01-30T07:41:27.152Z,982.64
2019-01-30T07:42:27.018Z,982.63
2019-01-30T07:43:27.332Z,982.63
2019-01-30T07:44:28.920Z,982.63
2019-01-30T07:45:28.001Z,982.65
2019-01-30T07:46:27.944Z,982.65
2019-01-30T07:48:29.105Z,982.66
2019-01-30T07:49:28.242Z,982.64
2019-01-30T07:50:28.754Z,982.64
2019-01-30T07:51:28.950Z,982.62
2019-01-30T07:52:28.822Z,982.62
2019-01-30T07:53:29.719Z,982.61
2019-01-30T07:54:30.514Z,982.60
2019-01-30T07:55:31.142Z,982.58
2019-01-30T07:56:30.830Z,982.57
2019-01-30T07:57:31.250Z,982.58
2019-01-30T07:58:31.767Z,982.55
2019-01-30T07:59:32.212Z,982.55
2019-01-30T08:00:32.488Z,982.55
2019-01-30T08:01:32.910Z,982.55
2019-01-30T08:02:33.224Z,982.56
2019-01-30T08:03:33.461Z,982.57
2019-01-30T08:04:33.650Z,982.58
2019-01-30T08:06:34.087Z,982.59
2019-01-30T08:07:34.381Z,982.60
2019-01-30T08:08:34.081Z,982.60
2019-01-30T08:09:34.877Z,982.61
2019-01-30T08:10:34.780Z,982.60
2019-01-30T08:11:35.306Z,982.58
2019-01-30T08:12:35.197Z,982.56
2019-01-30T08:13:35.442Z,982.55
2019-01-30T08:14:35.864Z,982.54
2019-01-30T08:15:36.186Z,982.54
2019-01-30T08:16:36.041Z,982.54
2019-01-30T08:17:36.357Z,982.52
2019-01-30T08:18:36.611Z,982.52
2019-01-30T08:19:37.693Z,982.50
2019-01-30T08:20:37.012Z,982.50
2019-01-30T08:21:37.271Z,982.50
2019-01-30T08:22:37.857Z,982.51
2019-01-30T08:23:37.936Z,982.50
2019-01-30T08:24:38.810Z,982.52
2019-01-30T08:25:39.098Z,982.53
2019-01-30T08:26:39.049Z,982.53
2019-01-30T08:27:39.213Z,982.51
2019-01-30T08:28:39.758Z,982.53
2019-01-30T08:29:39.922Z,982.53
2019-01-30T08:30:40.888Z,982.53
2019-01-30T08:31:40.469Z,982.53
2019-01-30T08:32:41.304Z,982.53
2019-01-30T08:33:40.960Z,982.52
2019-01-30T08:34:41.279Z,982.53
2019-01-30T08:35:41.598Z,982.56
2019-01-30T08:36:41.907Z,982.56
2019-01-30T08:37:42.361Z,982.58
2019-01-30T08:38:42.643Z,982.57
2019-01-30T08:39:42.990Z,982.58
2019-01-30T08:40:43.596Z,982.58
2019-01-30T08:41:43.475Z,982.59
2019-01-30T08:42:44.139Z,982.60
2019-01-30T08:43:43.999Z,982.63
2019-01-30T08:44:46.981Z,982.62
2019-01-30T08:45:45.692Z,982.61
2019-01-30T08:46:46.226Z,982.62
2019-01-30T08:47:46.218Z,982.62
2019-01-30T08:48:46.126Z,982.60
2019-01-30T08:49:46.636Z,982.61
2019-01-30T08:50:46.641Z,982.60
2019-01-30T08:51:46.663Z,982.60
2019-01-30T08:52:46.470Z,982.61
2019-01-30T08:53:46.976Z,982.61
2019-01-30T08:54:46.982Z,982.60
2019-01-30T08:55:46.990Z,982.60
2019-01-30T08:56:53.159Z,982.62
2019-01-30T08:57:46.897Z,982.61
2019-01-30T08:58:47.275Z,982.62
2019-01-30T08:59:47.524Z,982.62
2019-01-30T09:00:47.735Z,982.60
2019-01-30T09:01:47.852Z,982.60
2019-01-30T09:02:48.054Z,982.58
2019-01-30T09:03:48.382Z,982.60
2019-01-30T09:04:48.786Z,982.61
2019-01-30T09:05:49.201Z,982.59
2019-01-30T09:06:49.570Z,982.60
2019-01-30T09:07:49.525Z,982.60
2019-01-30T09:08:49.575Z,982.60
2019-01-30T09:09:49.771Z,982.59
2019-01-30T09:10:49.745Z,982.58
2019-01-30T09:11:50.135Z,982.58
2019-01-30T09:12:50.309Z,982.57
2019-01-30T09:13:50.629Z,982.58
2019-01-30T09:14:51.218Z,982.58
2019-01-30T09:15:50.502Z,982.56
2019-01-30T09:16:50.854Z,982.57
2019-01-30T09:17:51.187Z,982.56
2019-01-30T09:18:51.851Z,982.55
2019-01-30T09:19:52.063Z,982.55
2019-01-30T09:20:51.966Z,982.55
2019-01-30T09:21:52.686Z,982.54
2019-01-30T09:22:53.113Z,982.54
2019-01-30T09:23:52.955Z,982.54
2019-01-30T09:24:53.273Z,982.53
2019-01-30T09:25:53.599Z,982.52
2019-01-30T09:26:54.262Z,982.55
2019-01-30T09:27:54.120Z,982.56
2019-01-30T09:28:54.120Z,982.56
2019-01-30T09:29:54.785Z,982.54
2019-01-30T09:30:54.652Z,982.54
2019-01-30T09:31:54.931Z,982.55
2019-01-30T09:32:55.884Z,982.56
2019-01-30T09:33:55.491Z,982.57
2019-01-30T09:34:56.047Z,982.58
2019-01-30T09:35:55.862Z,982.56
2019-01-30T09:36:56.378Z,982.55
2019-01-30T09:37:56.750Z,982.55
2019-01-30T09:38:57.404Z,982.58
2019-01-30T09:39:57.628Z,982.55
2019-01-30T09:40:57.485Z,982.55
2019-01-30T09:41:57.881Z,982.56
2019-01-30T09:42:58.274Z,982.56
2019-01-30T09:43:58.621Z,982.54
2019-01-30T09:44:59.391Z,982.53
2019-01-30T09:45:59.599Z,982.54
2019-01-30T09:47:00.119Z,982.53
2019-01-30T09:48:00.438Z,982.54
2019-01-30T09:49:00.745Z,982.53
2019-01-30T09:50:01.264Z,982.54
2019-01-30T09:51:01.076Z,982.54
2019-01-30T09:52:01.500Z,982.55
2019-01-30T09:53:02.013Z,982.54
2019-01-30T09:54:02.114Z,982.53
2019-01-30T09:55:02.120Z,982.53
2019-01-30T09:56:02.671Z,982.54
2019-01-30T09:57:02.234Z,982.54
2019-01-30T09:58:02.817Z,982.54
2019-01-30T09:59:02.450Z,982.53
2019-01-30T10:00:02.763Z,982.53
2019-01-30T10:01:03.081Z,982.53
2019-01-30T10:02:03.627Z,982.55
2019-01-30T10:03:03.299Z,982.56
2019-01-30T10:04:03.199Z,982.54
2019-01-30T10:05:04.125Z,982.54
2019-01-30T10:06:03.991Z,982.52
2019-01-30T10:07:04.249Z,982.51
2019-01-30T10:08:04.460Z,982.50
2019-01-30T10:09:04.256Z,982.52
2019-01-30T10:10:04.591Z,982.52
2019-01-30T10:11:05.027Z,982.52
2019-01-30T10:12:05.094Z,982.53
2019-01-30T10:13:05.140Z,982.54
2019-01-30T10:14:05.313Z,982.53
2019-01-30T10:15:05.024Z,982.55
2019-01-30T10:16:05.455Z,982.54
2019-01-30T10:17:05.672Z,982.53
2019-01-30T10:18:05.785Z,982.53
2019-01-30T10:19:06.034Z,982.53
2019-01-30T10:20:05.968Z,982.53
2019-01-30T10:21:06.074Z,982.53
2019-01-30T10:23:06.355Z,982.53
2019-01-30T10:24:06.772Z,982.52
2019-01-30T10:25:07.182Z,982.53
2019-01-30T10:26:07.742Z,982.53
2019-01-30T10:27:07.719Z,982.53
2019-01-30T10:28:16.186Z,982.54
2019-01-30T10:29:08.537Z,982.53
2019-01-30T10:30:08.851Z,982.54
2019-01-30T10:31:08.973Z,982.56
2019-01-30T10:32:09.386Z,982.56
2019-01-30T10:33:09.849Z,982.54
2019-01-30T10:34:10.345Z,982.55
2019-01-30T10:35:11.414Z,982.54
2019-01-30T10:36:10.726Z,982.55
2019-01-30T10:37:11.193Z,982.56
2019-01-30T10:38:11.575Z,982.56
2019-01-30T10:39:12.211Z,982.55
2019-01-30T10:40:11.988Z,982.54
2019-01-30T10:41:12.676Z,982.53
2019-01-30T10:42:12.970Z,982.53
2019-01-30T10:43:12.793Z,982.53
2019-01-30T10:44:13.497Z,982.52
2019-01-30T10:45:13.707Z,982.51
2019-01-30T10:46:14.015Z,982.49
2019-01-30T10:47:13.877Z,982.50
2019-01-30T10:48:14.666Z,982.52
2019-01-30T10:49:13.996Z,982.53
2019-01-30T10:50:15.271Z,982.53
2019-01-30T10:51:15.596Z,982.54
2019-01-30T10:52:15.800Z,982.53
2019-01-30T10:53:16.326Z,982.51
2019-01-30T10:54:16.324Z,982.52
2019-01-30T10:55:16.333Z,982.53
2019-01-30T10:56:17.145Z,982.54
2019-01-30T10:57:17.160Z,982.55
2019-01-30T10:58:17.179Z,982.56
2019-01-30T10:59:17.073Z,982.56
2019-01-30T11:00:17.385Z,982.55
2019-01-30T11:01:17.573Z,982.55
2019-01-30T11:02:17.713Z,982.56
2019-01-30T11:03:18.026Z,982.55
2019-01-30T11:04:18.241Z,982.53
2019-01-30T11:05:18.442Z,982.53
2019-01-30T11:06:18.552Z,982.53
2019-01-30T11:07:18.860Z,982.55
2019-01-30T11:08:19.012Z,982.53
2019-01-30T11:09:19.196Z,982.53
2019-01-30T11:10:19.090Z,982.54
2019-01-30T11:11:19.874Z,982.54
2019-01-30T11:12:19.833Z,982.55
2019-01-30T11:13:20.293Z,982.55
2019-01-30T11:14:20.553Z,982.54
2019-01-30T11:15:20.354Z,982.55
2019-01-30T11:16:21.430Z,982.54
2019-01-30T11:17:20.972Z,982.52
2019-01-30T11:18:20.992Z,982.52
2019-01-30T11:19:20.883Z,982.50
2019-01-30T11:20:22.038Z,982.48
2019-01-30T11:21:21.687Z,982.47
2019-01-30T11:22:22.111Z,982.47
2019-01-30T11:23:22.516Z,982.48
2019-01-30T11:24:23.645Z,982.47
2019-01-30T11:25:23.033Z,982.47
2019-01-30T11:26:23.564Z,982.47
2019-01-30T11:27:24.012Z,982.47
2019-01-30T11:28:23.869Z,982.48
2019-01-30T11:29:24.220Z,982.46
2019-01-30T11:30:24.636Z,982.43
2019-01-30T11:31:25.301Z,982.44
2019-01-30T11:32:25.137Z,982.44
2019-01-30T11:33:30.611Z,982.44
2019-01-30T11:34:25.971Z,982.44
2019-01-30T11:35:26.829Z,982.40
2019-01-30T11:36:26.741Z,982.41
2019-01-30T11:37:27.105Z,982.41
2019-01-30T11:38:27.488Z,982.41
2019-01-30T11:39:28.215Z,982.40
2019-01-30T11:40:28.067Z,982.39
2019-01-30T11:41:28.528Z,982.39
2019-01-30T11:42:29.435Z,982.38
2019-01-30T11:43:29.854Z,982.37
2019-01-30T11:44:30.489Z,982.37
2019-01-30T11:45:30.788Z,982.37
2019-01-30T11:47:31.214Z,982.37
2019-01-30T11:48:31.220Z,982.36
2019-01-30T11:49:31.234Z,982.34
2019-01-30T11:50:31.231Z,982.32
2019-01-30T11:51:31.238Z,982.32
2019-01-30T11:52:31.756Z,982.32
2019-01-30T11:53:31.765Z,982.31
2019-01-30T11:54:38.642Z,982.31
2019-01-30T11:55:31.980Z,982.30
2019-01-30T11:56:32.293Z,982.32
2019-01-30T11:57:32.715Z,982.34
2019-01-30T11:58:33.031Z,982.34
2019-01-30T11:59:33.235Z,982.32
2019-01-30T12:00:33.451Z,982.30
2019-01-30T12:01:34.064Z,982.28
2019-01-30T12:02:33.878Z,982.25
2019-01-30T12:03:34.591Z,982.24
2019-01-30T12:04:34.634Z,982.22
2019-01-30T12:05:34.612Z,982.23
2019-01-30T12:06:34.996Z,982.23
2019-01-30T12:07:35.264Z,982.20
2019-01-30T12:08:35.577Z,982.20
2019-01-30T12:09:35.849Z,982.19
2019-01-30T12:10:35.735Z,982.20
2019-01-30T12:11:36.052Z,982.19
2019-01-30T12:12:37.213Z,982.18
2019-01-30T12:13:36.556Z,982.16
2019-01-30T12:14:37.121Z,982.15
2019-01-30T12:15:38.651Z,982.16
2019-01-30T12:16:37.761Z,982.15
2019-01-30T12:17:37.826Z,982.14
2019-01-30T12:18:38.785Z,982.13
2019-01-30T12:19:38.689Z,982.12
2019-01-30T12:20:39.091Z,982.12
2019-01-30T12:21:40.073Z,982.11
2019-01-30T12:22:39.850Z,982.10
2019-01-30T12:23:40.344Z,982.10
2019-01-30T12:24:40.826Z,982.10
2019-01-30T12:25:41.161Z,982.09
2019-01-30T12:26:41.566Z,982.08
2019-01-30T12:27:41.871Z,982.07
2019-01-30T12:28:42.638Z,982.05
2019-01-30T12:29:42.942Z,982.06
2019-01-30T12:30:44.162Z,982.05
2019-01-30T12:31:43.022Z,982.06
2019-01-30T12:32:43.449Z,982.05
2019-01-30T12:33:44.519Z,982.03
2019-01-30T12:34:43.863Z,982.03
2019-01-30T12:35:44.752Z,982.03
2019-01-30T12:36:45.355Z,982.02
2019-01-30T12:37:45.668Z,982.01
2019-01-30T12:38:45.985Z,982.01
2019-01-30T12:39:46.501Z,982.02
2019-01-30T12:40:46.310Z,982.01
2019-01-30T12:41:46.829Z,982.03